Dirección General De Aeronáutica Civil

Dirección Meteorológica de Chile - Servicios Climáticos

Informe General de Control de Calidad de la Estación

Listado de niveles de control de calidad para algunos parámetros
Estación Isla Quiriquina faro (360015)
Fecha de Revisión de los datos :

Elementos

Registros Niveles de Control Total
Nivel 0 Nivel 1 Nivel 2 Nivel 3 Errores Porcentaje
01 Temperatura del Aire Seco 7.048 0 . 0 . 0 . 0 . 0 0.00 %
02 Temperatura de Rocío 7.050 0 . 0 . 0 . 0 . 0 0.00 %
03 Humedad Relativa del Aire 7.049 0 . 0 . 0 . 0 . 0 0.00 %
04 Temperatura Máxima PM 1.409 0 . 0 . 30 2.13 % 0 . 30 2.13 %
05 Temperatura Mínima AM 1.403 0 . 0 . 0 . 0 . 0 0.00 %
06 Viento a 10 m. de Altura 7.050 1 0.01 % 0 . 1 0.01 % 0 . 2 0.03 %
07 Agua Caida, Acumulada 6 Horas 4.220 0 . 69 1.64 % 0 . 0 . 69 1.64 %
08 Presión Atm. a Nivel de Estación (QFE) 7.049 0 . 0 . 0 . 0 . 0 0.00 %
09 Presión Atm. a Nivel Medio del Mar (QFF) 7.050 0 . 0 . 0 . 0 . 0 0.00 %
10 Tiempo Pasado Sinóptico 7.049 0 . 0 . 0 . 0 . 0 0.00 %
11 Tiempo Presente Sinóptico 7.049 0 . 2 0.03 % 0 . 0 . 2 0.03 %

Totales

63.426 . 0.0016 % . 0.1119 % . 0.0489 % . 0.0000 % 103 0.1624 %

Detalle de Errores Encontrados

Nivel Fecha del Dato Descripción Información Error Fecha Ingreso
0 2021-09-25 00:00:00 ff (Intensidad del Viento) debe ser numerico, entre 0 y 70 kt. 130 2021-09-25 03:07:00
Errores del Nivel 1
Nivel Fecha del Dato Descripción Información Error Fecha Ingreso
1 2020-05-16 18:00:00 (ts - td > 5.0) y ((ww >= 40 y ww <= 49)) 44 2020-05-17 00:38:00
1 2021-01-20 18:00:00 (ts - td > 5.0) y ((ww >= 40 y ww <= 49)) 45 2021-01-20 18:19:00
1 2020-05-05 12:00:00 rrr = 14.2 y WW = 0 w1=2 w2=1 14.2 2020-05-05 12:27:00
1 2020-05-20 00:00:00 rrr = 5.8 y WW = 10 w1=2 w2=2 5.8 2020-05-20 01:46:00
1 2020-05-20 12:00:00 rrr = trazas y WW = 1 w1=2 w2=1 0.0 2020-05-20 12:59:00
1 2020-05-25 12:00:00 rrr = trazas y WW = 1 w1=1 w2=0 0.0 2020-05-25 12:45:00
1 2020-06-03 12:00:00 rrr = 8.4 y WW = 2 w1=0 w2=0 8.4 2020-06-03 15:22:00
1 2020-06-07 12:00:00 rrr = 4.3 y WW = 2 w1=2 w2=2 4.3 2020-06-07 12:25:00
1 2020-06-16 18:00:00 rrr = s/p y WW = 10 w1=8 w2=6 0.0 2020-06-16 18:28:00
1 2020-06-17 12:00:00 rrr = 4.8 y WW = 2 w1=2 w2=2 4.8 2020-06-17 13:11:00
1 2020-06-19 12:00:00 rrr = 5.5 y WW = 2 w1=2 w2=0 5.5 2020-06-19 13:03:00
1 2020-06-20 12:00:00 rrr = s/p y WW = 50 w1=5 w2=2 0.0 2020-06-20 12:44:00
1 2020-06-27 12:00:00 rrr = 2.0 y WW = 2 w1=2 w2=2 2.0 2020-06-27 15:22:00
1 2020-06-30 00:00:00 rrr = s/p y WW = 1 w1=6 w2=1 0.0 2020-06-30 00:12:00
1 2020-06-30 12:00:00 rrr = 13.0 y WW = 6 w1=2 w2=2 13.0 2020-06-30 13:13:00
1 2020-07-05 12:00:00 rrr = 4.7 y WW = 1 w1=0 w2=0 4.7 2020-07-05 15:04:00
1 2020-07-11 18:00:00 rrr = trazas y WW = 2 w1=2 w2=2 0.0 2020-07-11 19:26:00
1 2020-07-13 00:00:00 rrr = 1.5 y WW = 10 w1=2 w2=2 1.5 2020-07-13 00:46:00
1 2020-07-13 12:00:00 rrr = 1.2 y WW = 2 w1=0 w2=0 1.2 2020-07-13 13:18:00
1 2020-07-23 00:00:00 rrr = s/p y WW = 2 w1=6 w2=2 0.0 2020-07-23 03:56:00
1 2020-07-23 12:00:00 rrr = 1.8 y WW = 2 w1=0 w2=0 1.8 2020-07-23 13:33:00
1 2020-07-24 00:00:00 rrr = 2.1 y WW = 10 w1=2 w2=2 2.1 2020-07-24 14:00:00
1 2020-07-31 12:00:00 rrr = 1.3 y WW = 2 w1=0 w2=0 1.3 2020-07-31 12:28:00
1 2020-08-02 12:00:00 rrr = 3.2 y WW = 2 w1=2 w2=2 3.2 2020-08-02 13:30:00
1 2020-08-04 00:00:00 rrr = s/p y WW = 65 w1=2 w2=2 0.0 2020-08-04 00:28:00
1 2020-08-21 00:00:00 rrr = trazas y WW = 2 w1=0 w2=0 0.0 2020-08-21 02:12:00
1 2020-08-23 18:00:00 rrr = s/p y WW = 2 w1=6 w2=2 0.0 2020-08-23 19:45:00
1 2020-08-24 12:00:00 rrr = 6.8 y WW = 2 w1=2 w2=2 6.8 2020-08-24 12:49:00
1 2020-08-27 12:00:00 rrr = 2.1 y WW = 2 w1=2 w2=2 2.1 2020-08-27 15:27:00
1 2020-10-27 12:00:00 rrr = 5.2 y WW = 2 w1=2 w2=2 5.2 2020-10-27 13:19:00
1 2020-12-03 18:00:00 rrr = trazas y WW = 2 w1=0 w2=0 0.0 2020-12-03 18:24:00
1 2020-12-04 00:00:00 rrr = trazas y WW = 2 w1=0 w2=0 0.0 2020-12-04 00:55:00
1 2020-12-10 18:00:00 rrr = 1.2 y WW = 2 w1=0 w2=0 1.2 2020-12-10 20:13:00
1 2020-12-27 00:00:00 rrr = trazas y WW = 2 w1=2 w2=1 0.0 2020-12-27 00:38:00
1 2020-12-27 18:00:00 rrr = trazas y WW = 10 w1=4 w2=4 0.0 2020-12-27 17:59:00
1 2020-12-29 12:00:00 rrr = trazas y WW = 2 w1=0 w2=0 0.0 2020-12-29 11:55:00
1 2021-01-30 18:00:00 rrr = s/p y WW = 2 w1=5 w2=5 0.0 2021-01-30 20:04:00
1 2021-02-27 18:00:00 rrr = trazas y WW = 2 w1=0 w2=0 0.0 2021-02-27 17:37:00
1 2021-03-03 18:00:00 rrr = trazas y WW = 2 w1=0 w2=0 0.0 2021-03-04 00:09:00
1 2021-03-27 12:00:00 rrr = trazas y WW = 2 w1=0 w2=0 0.0 2021-03-27 13:27:00
1 2021-04-19 18:00:00 rrr = trazas y WW = 2 w1=2 w2=2 0.0 2021-04-19 19:22:00
1 2021-04-21 12:00:00 rrr = 4.2 y WW = 2 w1=0 w2=0 4.2 2021-04-21 12:36:00
1 2021-06-06 00:00:00 rrr = trazas y WW = 2 w1=2 w2=2 0.0 2021-06-06 00:17:00
1 2021-06-16 00:00:00 rrr = 0.6 y WW = 2 w1=2 w2=2 0.6 2021-06-16 00:18:00
1 2021-06-22 12:00:00 rrr = 0.4 y WW = 10 w1=2 w2=2 0.4 2021-06-22 12:34:00
1 2021-08-16 12:00:00 rrr = 26.6 y WW = 10 w1=2 w2=2 26.6 2021-08-16 13:07:00
1 2021-08-18 12:00:00 rrr = 3.5 y WW = 10 w1=2 w2=2 3.5 2021-08-18 14:06:00
1 2021-09-03 12:00:00 rrr = trazas y WW = 2 w1=2 w2=2 0.0 2021-09-03 13:28:00
1 2021-09-21 12:00:00 rrr = trazas y WW = 2 w1=0 w2=0 0.0 2021-09-21 17:11:00
1 2021-09-27 12:00:00 rrr = s/p y WW = 2 w1=6 w2=2 0.0 2021-09-27 16:55:00
1 2021-10-14 12:00:00 rrr = 2.1 y WW = 2 w1=2 w2=2 2.1 2021-10-18 14:20:00
1 2021-11-03 18:00:00 rrr = 4.5 y WW = 10 w1=2 w2=2 4.5 2021-11-03 18:05:00
1 2021-12-27 18:00:00 rrr = trazas y WW = 2 w1=4 w2=2 0.0 2021-12-27 17:52:00
1 2021-12-30 12:00:00 rrr = 2.0 y WW = 2 w1=4 w2=4 2.0 2021-12-30 12:22:00
1 2022-01-22 18:00:00 rrr = s/p y WW = 25 w1=2 w2=1 0.0 2022-01-23 00:04:00
1 2022-01-28 18:00:00 rrr = s/p y WW = 10 w1=5 w2=4 0.0 2022-01-28 18:13:00
1 2022-02-10 00:00:00 rrr = trazas y WW = 2 w1=0 w2=0 0.0 2022-02-10 00:29:00
1 2022-03-03 18:00:00 rrr = s/p y WW = 44 w1=6 w2=4 0.0 2022-03-03 17:59:00
1 2022-03-07 00:00:00 rrr = s/p y WW = 21 w1=8 w2=2 0.0 2022-03-07 02:12:00
1 2022-03-21 18:00:00 rrr = s/p y WW = 1 w1=8 w2=2 0.0 2022-03-21 18:27:00
1 2022-03-23 12:00:00 rrr = s/p y WW = 25 w1=2 w2=1 0.0 2022-03-23 12:41:00
1 2022-03-29 12:00:00 rrr = s/p y WW = 1 w1=8 w2=2 0.0 2022-03-29 12:41:00
1 2022-04-25 00:00:00 rrr = s/p y WW = 1 w1=6 w2=4 0.0 2022-04-25 00:18:00
1 2022-04-25 12:00:00 rrr = 0.8 y WW = 10 w1=4 w2=2 0.8 2022-04-25 12:27:00
1 2022-05-09 00:00:00 rrr = 0.1 y WW = 3 w1=4 w2=4 0.1 2022-05-09 00:33:00
1 2022-05-13 12:00:00 rrr = 0.1 y WW = 3 w1=2 w2=1 0.1 2022-05-13 12:06:00
1 2022-05-23 12:00:00 rrr = 0.1 y WW = 1 w1=2 w2=2 0.1 2022-05-23 12:38:00
1 2022-06-22 00:00:00 rrr = 0.2 y WW = 5 w1=2 w2=2 0.2 2022-06-22 01:00:00
1 2023-03-10 00:00:00 rrr = 0.2 y WW = 3 w1=2 w2=2 0.2 2023-03-10 00:31:00
1 2023-05-18 12:00:00 rrr = 0.2 y WW = 1 w1=2 w2=2 0.2 2023-05-18 13:25:00
1 2023-10-19 12:00:00 rrr = trazas y WW = 2 w1=0 w2=0 0.0 2023-10-19 11:56:00
Errores del Nivel 71
Nivel Fecha del Dato Descripción Información Error Fecha Ingreso
2 2020-12-13 00:00:00 Temperatura 15.8 del 12-12-2020 15:00, Mayor que la Máxima 15.6 13-12-2020 00:00 15.8 -- 15.6 2020-12-13 03:19:00
2 2020-12-25 00:00:00 Temperatura 21.9 del 24-12-2020 18:00, Mayor que la Máxima 21.7 25-12-2020 00:00 21.9 -- 21.7 2020-12-25 07:56:00
2 2021-01-01 00:00:00 Temperatura 23.0 del 31-12-2020 18:00, Mayor que la Máxima 22.4 01-01-2021 00:00 23.0 -- 22.4 2021-01-01 01:59:00
2 2021-01-19 00:00:00 Temperatura 24.7 del 18-01-2021 18:00, Mayor que la Máxima 24.3 19-01-2021 00:00 24.7 -- 24.3 2021-01-19 00:44:00
2 2021-01-26 00:00:00 Temperatura 26.2 del 25-01-2021 18:00, Mayor que la Máxima 25.2 26-01-2021 00:00 26.2 -- 25.2 2021-01-26 03:25:00
2 2021-02-14 00:00:00 Temperatura 20.4 del 13-02-2021 21:00, Mayor que la Máxima 20.0 14-02-2021 00:00 20.4 -- 20.0 2021-02-14 00:14:00
2 2021-02-19 00:00:00 Temperatura 18.0 del 18-02-2021 18:00, Mayor que la Máxima 16.0 19-02-2021 00:00 18.0 -- 16.0 2021-02-19 00:01:00
2 2021-02-20 00:00:00 Temperatura 20.6 del 19-02-2021 21:00, Mayor que la Máxima 18.0 20-02-2021 00:00 20.6 -- 18.0 2021-02-20 00:45:00
2 2021-03-02 00:00:00 Temperatura 21.4 del 01-03-2021 18:00, Mayor que la Máxima 21.0 02-03-2021 00:00 21.4 -- 21.0 2021-03-01 23:44:00
2 2021-03-04 00:00:00 Temperatura 22.2 del 03-03-2021 21:00, Mayor que la Máxima 22.0 04-03-2021 00:00 22.2 -- 22.0 2021-03-04 00:11:00
2 2021-03-06 00:00:00 Temperatura 16.6 del 05-03-2021 18:00, Mayor que la Máxima 16.0 06-03-2021 00:00 16.6 -- 16.0 2021-03-06 00:16:00
2 2021-03-16 00:00:00 Temperatura 17.6 del 15-03-2021 18:00, Mayor que la Máxima 16.7 16-03-2021 00:00 17.6 -- 16.7 2021-03-16 11:46:00
2 2021-09-30 00:00:00 Temperatura 15.6 del 29-09-2021 18:00, Mayor que la Máxima 12.9 30-09-2021 00:00 15.6 -- 12.9 2021-09-30 14:44:00
2 2021-10-04 00:00:00 Temperatura 15.3 del 03-10-2021 18:00, Mayor que la Máxima 14.9 04-10-2021 00:00 15.3 -- 14.9 2021-10-04 03:13:00
2 2021-10-30 00:00:00 Temperatura 19.4 del 29-10-2021 18:00, Mayor que la Máxima 18.0 30-10-2021 00:00 19.4 -- 18.0 2021-10-30 00:16:00
2 2021-11-04 00:00:00 Temperatura 15.2 del 03-11-2021 21:00, Mayor que la Máxima 14.0 04-11-2021 00:00 15.2 -- 14.0 2021-11-04 00:31:00
2 2021-11-25 00:00:00 Temperatura 17.8 del 24-11-2021 21:00, Mayor que la Máxima 17.6 25-11-2021 00:00 17.8 -- 17.6 2021-11-25 00:04:00
2 2021-12-30 00:00:00 Temperatura 16.2 del 29-12-2021 15:00, Mayor que la Máxima 15.5 30-12-2021 00:00 16.2 -- 15.5 2021-12-30 04:37:00
2 2022-01-05 00:00:00 Temperatura 22.7 del 04-01-2022 21:00, Mayor que la Máxima 22.6 05-01-2022 00:00 22.7 -- 22.6 2022-01-05 00:23:00
2 2022-02-13 00:00:00 Temperatura 28.3 del 12-02-2022 18:00, Mayor que la Máxima 28.0 13-02-2022 00:00 28.3 -- 28.0 2022-02-12 23:59:00
2 2022-11-21 00:00:00 Temperatura 19.6 del 20-11-2022 21:00, Mayor que la Máxima 18.6 21-11-2022 00:00 19.6 -- 18.6 2022-11-21 05:11:00
2 2022-12-09 00:00:00 Temperatura 18.4 del 08-12-2022 21:00, Mayor que la Máxima 17.0 09-12-2022 00:00 18.4 -- 17.0 2022-12-09 00:06:00
2 2022-12-18 00:00:00 Temperatura 25.0 del 17-12-2022 18:00, Mayor que la Máxima 22.0 18-12-2022 00:00 25.0 -- 22.0 2022-12-17 23:48:00
2 2023-01-15 00:00:00 Temperatura 21.6 del 14-01-2023 18:00, Mayor que la Máxima 20.2 15-01-2023 00:00 21.6 -- 20.2 2023-01-15 03:43:00
2 2023-03-08 00:00:00 Temperatura 21.4 del 07-03-2023 18:00, Mayor que la Máxima 17.0 08-03-2023 00:00 21.4 -- 17.0 2023-03-08 00:31:00
2 2023-04-22 00:00:00 Temperatura 15.8 del 21-04-2023 21:00, Mayor que la Máxima 15.6 22-04-2023 00:00 15.8 -- 15.6 2023-04-21 23:56:00
2 2023-05-15 00:00:00 Temperatura 16.0 del 14-05-2023 15:00, Mayor que la Máxima 14.0 15-05-2023 00:00 16.0 -- 14.0 2023-05-15 00:08:00
2 2023-08-13 00:00:00 Temperatura 13.2 del 12-08-2023 21:00, Mayor que la Máxima 12.0 13-08-2023 00:00 13.2 -- 12.0 2023-08-17 12:47:00
2 2023-10-06 00:00:00 Temperatura 14.8 del 05-10-2023 18:00, Mayor que la Máxima 14.0 06-10-2023 00:00 14.8 -- 14.0 2023-10-06 00:00:00
2 2023-10-07 00:00:00 Temperatura 48.0 del 06-10-2023 15:00, Mayor que la Máxima 17.0 07-10-2023 00:00 48.0 -- 17.0 2023-10-07 00:21:00
2 2021-09-25 00:00:00 Variación Tri-horaria de Intensidad del viento fuera de rango (3 hora Antes) 130 - 6 2021-09-25 03:07:00
Errores del Nivel 31
Informe generado el 05-03-2024 09:51
Requerimiento: RE6001